createdAt,value
2017-02-19T00:00:46.958Z,0
2017-02-19T00:02:00.082Z,0
2017-02-19T00:03:13.242Z,0
2017-02-19T00:04:26.353Z,0
2017-02-19T00:05:39.414Z,0
2017-02-19T00:06:52.534Z,0
2017-02-19T00:08:05.625Z,0
2017-02-19T00:09:17.941Z,0
2017-02-19T00:10:31.050Z,0
2017-02-19T00:11:44.158Z,0
2017-02-19T00:12:56.836Z,0
2017-02-19T00:14:10.134Z,0
2017-02-19T00:15:22.802Z,0
2017-02-19T00:16:35.949Z,0
2017-02-19T00:17:49.025Z,0
2017-02-19T00:19:02.120Z,0
2017-02-19T00:20:14.817Z,0
2017-02-19T00:21:27.557Z,0
2017-02-19T00:22:40.259Z,0
2017-02-19T00:23:53.355Z,0
2017-02-19T00:25:06.420Z,0
2017-02-19T00:26:19.139Z,0
2017-02-19T00:27:31.861Z,0
2017-02-19T00:28:44.932Z,0
2017-02-19T00:29:58.052Z,0
2017-02-19T00:31:11.199Z,0
2017-02-19T00:32:24.251Z,0
2017-02-19T00:33:37.318Z,0
2017-02-19T00:34:49.642Z,0
2017-02-19T00:36:02.779Z,0
2017-02-19T00:37:15.520Z,0
2017-02-19T00:38:28.230Z,0
2017-02-19T00:39:41.346Z,0
2017-02-19T00:40:54.439Z,0
2017-02-19T00:42:07.522Z,0
2017-02-19T00:43:20.632Z,0
2017-02-19T00:44:33.753Z,0
2017-02-19T00:45:46.779Z,0
2017-02-19T00:46:59.903Z,0
2017-02-19T00:48:12.608Z,0
2017-02-19T00:49:25.748Z,0
2017-02-19T00:50:38.463Z,0
2017-02-19T00:51:51.559Z,0
2017-02-19T00:53:04.680Z,0
2017-02-19T00:54:17.788Z,0
2017-02-19T00:55:30.845Z,0
2017-02-19T00:56:43.936Z,0
2017-02-19T00:57:57.025Z,0
2017-02-19T00:59:10.109Z,0
2017-02-19T01:00:23.216Z,0
2017-02-19T01:01:36.301Z,0
2017-02-19T01:02:49.358Z,0
2017-02-19T01:04:02.092Z,0
2017-02-19T01:05:15.200Z,0
2017-02-19T01:06:27.913Z,0
2017-02-19T01:07:40.975Z,0
2017-02-19T01:08:54.063Z,0
2017-02-19T01:10:07.172Z,0
2017-02-19T01:11:20.267Z,0
2017-02-19T01:12:32.964Z,0
2017-02-19T01:13:46.313Z,0
2017-02-19T01:14:59.412Z,0
2017-02-19T01:16:11.730Z,0
2017-02-19T01:17:24.840Z,0
2017-02-19T01:18:37.961Z,0
2017-02-19T01:19:51.108Z,0
2017-02-19T01:21:04.210Z,0
2017-02-19T01:22:16.950Z,0
2017-02-19T01:23:30.046Z,0
2017-02-19T01:24:43.151Z,0
2017-02-19T01:25:56.243Z,0
2017-02-19T01:27:09.295Z,0
2017-02-19T01:28:22.410Z,0
2017-02-19T01:29:35.500Z,0
2017-02-19T01:30:48.582Z,0
2017-02-19T01:32:01.709Z,0
2017-02-19T01:33:14.792Z,0
2017-02-19T01:34:27.491Z,0
2017-02-19T01:35:39.810Z,0
2017-02-19T01:36:52.856Z,0
2017-02-19T01:38:05.952Z,0
2017-02-19T01:39:18.985Z,0
2017-02-19T01:40:31.638Z,0
2017-02-19T01:41:44.759Z,0
2017-02-19T01:42:57.856Z,0
2017-02-19T01:44:10.553Z,0
2017-02-19T01:45:22.877Z,0
2017-02-19T01:46:36.220Z,0
2017-02-19T01:47:49.342Z,0
2017-02-19T01:49:02.465Z,0
2017-02-19T01:50:15.154Z,0
2017-02-19T01:51:27.907Z,0
2017-02-19T01:52:41.007Z,0
2017-02-19T01:53:54.147Z,0
2017-02-19T01:55:07.275Z,0
2017-02-19T01:56:20.031Z,0
2017-02-19T01:57:33.153Z,0
2017-02-19T01:58:46.255Z,0
2017-02-19T01:59:59.314Z,0
2017-02-19T02:01:12.370Z,0
2017-02-19T02:02:25.069Z,0
2017-02-19T02:03:37.777Z,0
2017-02-19T02:04:50.847Z,0
2017-02-19T02:06:03.922Z,0
2017-02-19T02:07:17.028Z,0
2017-02-19T02:08:30.136Z,0
2017-02-19T02:09:43.195Z,0
2017-02-19T02:10:56.260Z,0
2017-02-19T02:12:08.955Z,0
2017-02-19T02:13:22.038Z,0
2017-02-19T02:14:35.159Z,0
2017-02-19T02:15:48.292Z,0
2017-02-19T02:17:01.007Z,0
2017-02-19T02:18:14.082Z,0
2017-02-19T02:19:26.734Z,0
2017-02-19T02:20:39.836Z,0
2017-02-19T02:21:53.004Z,0
2017-02-19T02:23:06.124Z,0
2017-02-19T02:24:19.058Z,0
2017-02-19T02:25:31.763Z,0
2017-02-19T02:26:44.105Z,0
2017-02-19T02:27:57.175Z,0
2017-02-19T02:29:10.272Z,0
2017-02-19T02:30:22.969Z,0
2017-02-19T02:31:35.715Z,0
2017-02-19T02:32:48.809Z,0
2017-02-19T02:34:01.909Z,0
2017-02-19T02:35:15.030Z,0
2017-02-19T02:36:28.179Z,0
2017-02-19T02:37:40.900Z,0
2017-02-19T02:38:53.965Z,0
2017-02-19T02:40:07.042Z,0
2017-02-19T02:41:19.389Z,0
2017-02-19T02:42:32.508Z,0
2017-02-19T02:43:45.255Z,0
2017-02-19T02:44:58.394Z,0
2017-02-19T02:46:11.112Z,0
2017-02-19T02:47:23.396Z,0
2017-02-19T02:48:36.505Z,0
2017-02-19T02:49:49.577Z,0
2017-02-19T02:51:02.658Z,0
2017-02-19T02:52:15.669Z,0
2017-02-19T02:53:28.763Z,0
2017-02-19T02:54:41.845Z,0
2017-02-19T02:55:55.007Z,0
2017-02-19T02:57:08.075Z,0
2017-02-19T02:58:20.766Z,0
2017-02-19T02:59:33.869Z,0
2017-02-19T03:00:46.915Z,0
2017-02-19T03:02:00.035Z,0
2017-02-19T03:03:13.157Z,0
2017-02-19T03:04:26.246Z,0
2017-02-19T03:05:39.347Z,0
2017-02-19T03:06:52.412Z,0
2017-02-19T03:08:05.508Z,0
2017-02-19T03:09:17.843Z,0
2017-02-19T03:10:30.939Z,0
2017-02-19T03:11:44.002Z,0
2017-02-19T03:12:57.148Z,0
2017-02-19T03:14:09.886Z,0
2017-02-19T03:15:22.571Z,0
2017-02-19T03:16:35.662Z,0
2017-02-19T03:17:48.807Z,0
2017-02-19T03:19:01.928Z,0
2017-02-19T03:20:14.252Z,0
2017-02-19T03:21:27.377Z,0
2017-02-19T03:22:40.109Z,0
2017-02-19T03:23:53.194Z,0
2017-02-19T03:25:06.584Z,0
2017-02-19T03:26:19.721Z,0
2017-02-19T03:27:32.817Z,0
2017-02-19T03:28:45.924Z,0
2017-02-19T03:29:59.002Z,0
2017-02-19T03:31:12.088Z,0
2017-02-19T03:32:25.151Z,0
2017-02-19T03:33:38.228Z,0
2017-02-19T03:34:51.309Z,0
2017-02-19T03:36:04.350Z,0
2017-02-19T03:37:17.065Z,0
2017-02-19T03:38:30.182Z,0
2017-02-19T03:39:43.284Z,0
2017-02-19T03:40:56.430Z,0
2017-02-19T03:42:09.475Z,0
2017-02-19T03:43:22.153Z,0
2017-02-19T03:44:35.284Z,0
2017-02-19T03:45:48.363Z,0
2017-02-19T03:47:01.436Z,0
2017-02-19T03:48:13.741Z,0
2017-02-19T03:49:26.807Z,0
2017-02-19T03:50:39.872Z,0
2017-02-19T03:51:53.010Z,0
2017-02-19T03:53:06.082Z,0
2017-02-19T03:54:19.157Z,0
2017-02-19T03:55:32.284Z,0
2017-02-19T03:56:45.353Z,0
2017-02-19T03:57:58.689Z,0
2017-02-19T03:59:11.752Z,0
2017-02-19T04:00:23.706Z,0
2017-02-19T04:01:36.784Z,0
2017-02-19T04:02:49.862Z,0
2017-02-19T04:04:02.952Z,0
2017-02-19T04:05:16.028Z,0
2017-02-19T04:06:29.116Z,0
2017-02-19T04:07:42.238Z,0
2017-02-19T04:08:55.334Z,0
2017-02-19T04:10:08.036Z,0
2017-02-19T04:11:20.343Z,0
2017-02-19T04:12:33.401Z,0
2017-02-19T04:13:46.479Z,0
2017-02-19T04:14:59.612Z,0
2017-02-19T04:16:12.684Z,0
2017-02-19T04:17:25.362Z,0
2017-02-19T04:18:38.483Z,0
2017-02-19T04:19:51.559Z,0
2017-02-19T04:21:04.630Z,0
2017-02-19T04:22:17.715Z,0
2017-02-19T04:23:30.842Z,0
2017-02-19T04:24:43.955Z,0
2017-02-19T04:25:57.076Z,0
2017-02-19T04:27:10.190Z,0
2017-02-19T04:28:23.283Z,0
2017-02-19T04:29:36.395Z,0
2017-02-19T04:30:49.403Z,0
2017-02-19T04:32:02.508Z,0
2017-02-19T04:33:14.816Z,0
2017-02-19T04:34:27.916Z,0
2017-02-19T04:35:40.992Z,0
2017-02-19T04:36:54.138Z,0
2017-02-19T04:38:07.237Z,0
2017-02-19T04:39:20.294Z,0
2017-02-19T04:40:33.420Z,0
2017-02-19T04:41:46.497Z,0
2017-02-19T04:42:59.557Z,0
2017-02-19T04:44:12.639Z,0
2017-02-19T04:45:25.735Z,0
2017-02-19T04:46:38.890Z,0
2017-02-19T04:47:51.606Z,0
2017-02-19T04:49:04.708Z,0
2017-02-19T04:50:17.400Z,0
2017-02-19T04:51:30.469Z,0
2017-02-19T04:52:43.562Z,0
2017-02-19T04:53:56.643Z,0
2017-02-19T04:55:09.745Z,0
2017-02-19T04:56:22.440Z,0
2017-02-19T04:57:35.138Z,0
2017-02-19T04:58:48.197Z,0
2017-02-19T05:00:01.287Z,0
2017-02-19T05:01:13.988Z,0
2017-02-19T05:02:26.679Z,0
2017-02-19T05:03:39.755Z,0
2017-02-19T05:04:52.802Z,0
2017-02-19T05:06:05.540Z,0
2017-02-19T05:07:18.249Z,0
2017-02-19T05:08:31.376Z,0
2017-02-19T05:09:44.479Z,0
2017-02-19T05:10:57.581Z,0
2017-02-19T05:12:10.671Z,0
2017-02-19T05:13:23.336Z,0
2017-02-19T05:14:36.696Z,0
2017-02-19T05:15:49.726Z,0
2017-02-19T05:17:02.811Z,0
2017-02-19T05:18:15.107Z,0
2017-02-19T05:19:27.869Z,0
2017-02-19T05:20:40.623Z,0
2017-02-19T05:21:53.746Z,0
2017-02-19T05:23:06.809Z,0
2017-02-19T05:24:19.558Z,0
2017-02-19T05:25:32.625Z,0
2017-02-19T05:26:45.679Z,0
2017-02-19T05:27:58.751Z,0
2017-02-19T05:29:11.893Z,0
2017-02-19T05:30:24.668Z,0
2017-02-19T05:31:37.741Z,0
2017-02-19T05:32:50.807Z,0
2017-02-19T05:34:03.953Z,0
2017-02-19T05:35:17.049Z,0
2017-02-19T05:36:30.112Z,0
2017-02-19T05:37:42.832Z,0
2017-02-19T05:38:55.929Z,0
2017-02-19T05:40:09.077Z,0
2017-02-19T05:41:22.178Z,0
2017-02-19T05:42:35.266Z,0
2017-02-19T05:43:48.369Z,0
2017-02-19T05:45:01.491Z,0
2017-02-19T05:46:14.604Z,0
2017-02-19T05:47:27.694Z,0
2017-02-19T05:48:40.403Z,0
2017-02-19T05:49:53.510Z,0
2017-02-19T05:51:06.545Z,0
2017-02-19T05:52:19.652Z,0
2017-02-19T05:53:32.743Z,0
2017-02-19T05:54:45.826Z,0
2017-02-19T05:55:58.897Z,0
2017-02-19T05:57:11.649Z,0
2017-02-19T05:58:24.388Z,0
2017-02-19T05:59:37.489Z,0
2017-02-19T06:00:50.216Z,0
2017-02-19T06:02:03.327Z,0
2017-02-19T06:03:16.054Z,5
2017-02-19T06:04:29.120Z,5
2017-02-19T06:05:42.213Z,5
2017-02-19T06:06:55.309Z,5
2017-02-19T06:08:08.011Z,5
2017-02-19T06:09:20.681Z,5
2017-02-19T06:10:33.754Z,10
2017-02-19T06:11:46.468Z,10
2017-02-19T06:12:59.148Z,10
2017-02-19T06:14:12.311Z,10
2017-02-19T06:15:25.012Z,15
2017-02-19T06:16:38.127Z,15
2017-02-19T06:17:51.223Z,15
2017-02-19T06:19:04.311Z,20
2017-02-19T06:20:17.414Z,20
2017-02-19T06:21:30.509Z,25
2017-02-19T06:22:43.613Z,25
2017-02-19T06:23:56.751Z,25
2017-02-19T06:25:09.871Z,30
2017-02-19T06:26:22.630Z,30
2017-02-19T06:27:35.322Z,35
2017-02-19T06:28:48.003Z,40
2017-02-19T06:30:01.063Z,40
2017-02-19T06:31:13.752Z,45
2017-02-19T06:32:26.079Z,50
2017-02-19T06:33:39.111Z,50
2017-02-19T06:34:52.188Z,55
2017-02-19T06:36:04.895Z,60
2017-02-19T06:37:17.639Z,65
2017-02-19T06:38:30.708Z,70
2017-02-19T06:39:43.403Z,75
2017-02-19T06:40:56.476Z,80
2017-02-19T06:42:09.222Z,90
2017-02-19T06:43:21.940Z,90
2017-02-19T06:44:35.032Z,100
2017-02-19T06:45:48.120Z,110
2017-02-19T06:47:01.232Z,120
2017-02-19T06:48:14.288Z,130
2017-02-19T06:49:26.998Z,140
2017-02-19T06:50:40.054Z,155
2017-02-19T06:51:53.142Z,170
2017-02-19T06:53:06.240Z,170
2017-02-19T06:54:18.931Z,170
2017-02-19T06:55:32.020Z,170
2017-02-19T06:56:45.115Z,175
2017-02-19T06:57:58.186Z,170
2017-02-19T06:59:11.325Z,160
2017-02-19T07:00:24.404Z,165
2017-02-19T07:01:37.475Z,160
2017-02-19T07:02:50.531Z,155
2017-02-19T07:04:03.654Z,155
2017-02-19T07:05:16.381Z,160
2017-02-19T07:06:29.457Z,165
2017-02-19T07:07:42.560Z,170
2017-02-19T07:08:55.700Z,170
2017-02-19T07:10:08.419Z,175
2017-02-19T07:11:20.759Z,175
2017-02-19T07:12:33.898Z,180
2017-02-19T07:13:46.851Z,190
2017-02-19T07:14:59.979Z,200
2017-02-19T07:16:13.068Z,215
2017-02-19T07:17:26.146Z,215
2017-02-19T07:18:39.235Z,220
2017-02-19T07:19:52.292Z,215
2017-02-19T07:21:05.383Z,225
2017-02-19T07:22:18.054Z,230
2017-02-19T07:23:30.753Z,245
2017-02-19T07:24:43.447Z,255
2017-02-19T07:25:56.534Z,275
2017-02-19T07:27:09.631Z,285
2017-02-19T07:28:22.360Z,285
2017-02-19T07:29:35.511Z,260
2017-02-19T07:30:48.584Z,260
2017-02-19T07:32:01.725Z,265
2017-02-19T07:33:14.443Z,260
2017-02-19T07:34:27.512Z,270
2017-02-19T07:35:40.608Z,285
2017-02-19T07:36:53.711Z,310
2017-02-19T07:38:06.757Z,335
2017-02-19T07:39:19.915Z,355
2017-02-19T07:40:32.973Z,365
2017-02-19T07:41:46.064Z,365
2017-02-19T07:42:59.145Z,395
2017-02-19T07:44:12.234Z,440
2017-02-19T07:45:25.335Z,465
2017-02-19T07:46:38.478Z,470
2017-02-19T07:47:51.593Z,435
2017-02-19T07:49:04.719Z,425
2017-02-19T07:50:17.459Z,435
2017-02-19T07:51:30.548Z,455
2017-02-19T07:52:43.620Z,460
2017-02-19T07:53:56.707Z,465
2017-02-19T07:55:09.791Z,480
2017-02-19T07:56:22.493Z,520
2017-02-19T07:57:35.191Z,515
2017-02-19T07:58:48.281Z,475
2017-02-19T08:00:01.369Z,450
2017-02-19T08:01:14.746Z,445
2017-02-19T08:02:27.499Z,435
2017-02-19T08:03:40.580Z,430
2017-02-19T08:04:53.684Z,425
2017-02-19T08:06:06.810Z,415
2017-02-19T08:07:19.919Z,410
2017-02-19T08:08:32.623Z,405
2017-02-19T08:09:45.763Z,400
2017-02-19T08:10:58.873Z,400
2017-02-19T08:12:11.942Z,405
2017-02-19T08:13:25.005Z,410
2017-02-19T08:14:38.107Z,410
2017-02-19T08:15:50.479Z,410
2017-02-19T08:17:03.525Z,420
2017-02-19T08:18:16.651Z,425
2017-02-19T08:19:29.747Z,445
2017-02-19T08:20:42.417Z,460
2017-02-19T08:21:55.484Z,465
2017-02-19T08:23:08.566Z,470
2017-02-19T08:24:21.231Z,470
2017-02-19T08:25:34.349Z,475
2017-02-19T08:26:47.484Z,485
2017-02-19T08:28:00.567Z,505
2017-02-19T08:29:13.654Z,535
2017-02-19T08:30:26.392Z,555
2017-02-19T08:31:39.493Z,570
2017-02-19T08:32:52.591Z,585
2017-02-19T08:34:05.660Z,590
2017-02-19T08:35:18.732Z,605
2017-02-19T08:36:31.453Z,605
2017-02-19T08:37:44.549Z,590
2017-02-19T08:38:57.644Z,595
2017-02-19T08:40:09.563Z,590
2017-02-19T08:41:22.308Z,595
2017-02-19T08:42:35.014Z,580
2017-02-19T08:43:48.110Z,550
2017-02-19T08:45:01.199Z,525
2017-02-19T08:46:13.902Z,505
2017-02-19T08:47:27.022Z,490
2017-02-19T08:48:40.110Z,485
2017-02-19T08:49:53.214Z,470
2017-02-19T08:51:06.271Z,470
2017-02-19T08:52:19.303Z,475
2017-02-19T08:53:32.427Z,485
2017-02-19T08:54:45.541Z,495
2017-02-19T08:55:58.612Z,510
2017-02-19T08:57:11.682Z,520
2017-02-19T08:58:24.810Z,530
2017-02-19T08:59:37.899Z,545
2017-02-19T09:00:50.971Z,540
2017-02-19T09:02:04.167Z,545
2017-02-19T09:03:17.236Z,550
2017-02-19T09:04:30.327Z,545
2017-02-19T09:05:43.409Z,530
2017-02-19T09:06:56.507Z,520
2017-02-19T09:08:09.614Z,495
2017-02-19T09:09:22.748Z,480
2017-02-19T09:10:35.512Z,465
2017-02-19T09:11:48.583Z,460
2017-02-19T09:13:01.661Z,465
2017-02-19T09:14:14.728Z,475
2017-02-19T09:15:27.802Z,495
2017-02-19T09:16:40.867Z,525
2017-02-19T09:17:53.948Z,545
2017-02-19T09:19:07.011Z,555
2017-02-19T09:20:20.107Z,570
2017-02-19T09:21:33.201Z,580
2017-02-19T09:22:46.252Z,585
2017-02-19T09:23:59.334Z,590
2017-02-19T09:25:12.448Z,575
2017-02-19T09:26:25.557Z,575
2017-02-19T09:27:38.672Z,565
2017-02-19T09:28:51.751Z,560
2017-02-19T09:30:04.440Z,560
2017-02-19T09:31:17.524Z,560
2017-02-19T09:32:30.271Z,550
2017-02-19T09:33:43.420Z,540
2017-02-19T09:34:56.472Z,540
2017-02-19T09:36:09.519Z,520
2017-02-19T09:37:22.621Z,505
2017-02-19T09:38:35.335Z,490
2017-02-19T09:39:48.370Z,480
2017-02-19T09:41:01.503Z,465
2017-02-19T09:42:14.555Z,455
2017-02-19T09:43:26.825Z,450
2017-02-19T09:44:39.890Z,440
2017-02-19T09:45:52.986Z,435
2017-02-19T09:47:06.095Z,430
2017-02-19T09:48:18.387Z,415
2017-02-19T09:49:31.473Z,415
2017-02-19T09:50:43.819Z,415
2017-02-19T09:51:56.948Z,420
2017-02-19T09:53:09.636Z,435
2017-02-19T09:54:22.289Z,450
2017-02-19T09:55:35.422Z,475
2017-02-19T09:56:48.137Z,505
2017-02-19T09:58:01.170Z,535
2017-02-19T09:59:14.284Z,550
2017-02-19T10:00:27.401Z,560
2017-02-19T10:01:40.515Z,560
2017-02-19T10:02:53.611Z,560
2017-02-19T10:04:06.682Z,550
2017-02-19T10:05:19.376Z,545
2017-02-19T10:06:32.440Z,550
2017-02-19T10:07:45.550Z,560
2017-02-19T10:08:58.640Z,565
2017-02-19T10:10:11.314Z,580
2017-02-19T10:11:23.231Z,585
2017-02-19T10:12:36.358Z,595
2017-02-19T10:13:49.448Z,600
2017-02-19T10:15:02.169Z,615
2017-02-19T10:16:15.264Z,610
2017-02-19T10:17:28.335Z,610
2017-02-19T10:18:41.064Z,615
2017-02-19T10:19:54.200Z,620
2017-02-19T10:21:06.952Z,630
2017-02-19T10:22:20.022Z,635
2017-02-19T10:23:32.691Z,650
2017-02-19T10:24:45.796Z,665
2017-02-19T10:25:58.893Z,680
2017-02-19T10:27:11.604Z,695
2017-02-19T10:28:24.323Z,695
2017-02-19T10:29:37.426Z,695
2017-02-19T10:30:50.522Z,695
2017-02-19T10:32:03.694Z,695
2017-02-19T10:33:16.758Z,695
2017-02-19T10:34:29.846Z,685
2017-02-19T10:35:42.991Z,680
2017-02-19T10:36:56.151Z,670
2017-02-19T10:38:08.858Z,670
2017-02-19T10:39:21.961Z,670
2017-02-19T10:40:35.058Z,670
2017-02-19T10:41:48.138Z,680
2017-02-19T10:43:01.278Z,675
2017-02-19T10:44:14.012Z,670
2017-02-19T10:45:27.158Z,660
2017-02-19T10:46:40.318Z,650
2017-02-19T10:47:53.476Z,640
2017-02-19T10:49:06.623Z,630
2017-02-19T10:50:19.348Z,620
2017-02-19T10:51:32.488Z,610
2017-02-19T10:52:45.566Z,615
2017-02-19T10:53:58.661Z,610
2017-02-19T10:55:11.783Z,610
2017-02-19T10:56:24.880Z,610
2017-02-19T10:57:37.987Z,610
2017-02-19T10:58:51.088Z,615
2017-02-19T11:00:04.148Z,615
2017-02-19T11:01:16.870Z,600
2017-02-19T11:02:30.008Z,595
2017-02-19T11:03:43.111Z,620
2017-02-19T11:04:56.255Z,650
2017-02-19T11:06:09.339Z,650
2017-02-19T11:07:22.440Z,655
2017-02-19T11:08:35.512Z,655
2017-02-19T11:09:48.632Z,670
2017-02-19T11:11:01.733Z,685
2017-02-19T11:12:14.811Z,700
2017-02-19T11:13:27.519Z,710
2017-02-19T11:14:40.616Z,715
2017-02-19T11:15:53.738Z,730
2017-02-19T11:17:06.865Z,715
2017-02-19T11:18:19.603Z,690
2017-02-19T11:19:32.699Z,660
2017-02-19T11:20:45.756Z,655
2017-02-19T11:21:59.192Z,665
2017-02-19T11:23:12.306Z,695
2017-02-19T11:24:24.991Z,730
2017-02-19T11:25:38.055Z,750
2017-02-19T11:26:51.158Z,755
2017-02-19T11:28:04.228Z,790
2017-02-19T11:29:17.366Z,795
2017-02-19T11:30:30.092Z,760
2017-02-19T11:31:42.839Z,750
2017-02-19T11:32:55.930Z,730
2017-02-19T11:34:08.635Z,715
2017-02-19T11:35:21.778Z,695
2017-02-19T11:36:34.498Z,665
2017-02-19T11:37:47.567Z,635
2017-02-19T11:39:00.302Z,600
2017-02-19T11:40:12.616Z,575
2017-02-19T11:41:25.332Z,560
2017-02-19T11:42:37.689Z,550
2017-02-19T11:43:50.792Z,550
2017-02-19T11:45:03.895Z,555
2017-02-19T11:46:16.201Z,570
2017-02-19T11:47:29.267Z,590
2017-02-19T11:48:42.411Z,610
2017-02-19T11:49:54.724Z,620
2017-02-19T11:51:07.843Z,630
2017-02-19T11:52:20.162Z,620
2017-02-19T11:53:33.277Z,590
2017-02-19T11:54:46.383Z,580
2017-02-19T11:55:59.124Z,550
2017-02-19T11:57:12.208Z,520
2017-02-19T11:58:25.374Z,505
2017-02-19T11:59:38.470Z,485
2017-02-19T12:00:51.591Z,475
2017-02-19T12:02:04.693Z,475
2017-02-19T12:03:17.368Z,440
2017-02-19T12:04:30.083Z,430
2017-02-19T12:05:42.793Z,405
2017-02-19T12:06:55.857Z,425
2017-02-19T12:08:08.559Z,415
2017-02-19T12:09:21.680Z,415
2017-02-19T12:10:34.776Z,425
2017-02-19T12:11:47.873Z,400
2017-02-19T12:13:00.995Z,410
2017-02-19T12:14:13.713Z,385
2017-02-19T12:15:26.834Z,375
2017-02-19T12:16:39.931Z,375
2017-02-19T12:17:52.626Z,360
2017-02-19T12:19:05.754Z,385
2017-02-19T12:20:18.451Z,410
2017-02-19T12:21:31.571Z,440
2017-02-19T12:22:44.667Z,445
2017-02-19T12:23:57.709Z,455
2017-02-19T12:25:10.014Z,480
2017-02-19T12:26:22.754Z,490
2017-02-19T12:27:35.879Z,535
2017-02-19T12:28:48.947Z,575
2017-02-19T12:30:02.085Z,570
2017-02-19T12:31:14.818Z,575
2017-02-19T12:32:27.527Z,600
2017-02-19T12:33:40.616Z,605
2017-02-19T12:34:53.693Z,610
2017-02-19T12:36:06.420Z,620
2017-02-19T12:37:19.147Z,640
2017-02-19T12:38:32.155Z,635
2017-02-19T12:39:45.255Z,600
2017-02-19T12:40:58.374Z,585
2017-02-19T12:42:11.487Z,585
2017-02-19T12:43:24.573Z,580
2017-02-19T12:44:37.693Z,560
2017-02-19T12:45:50.811Z,540
2017-02-19T12:47:03.535Z,540
2017-02-19T12:48:16.623Z,540
2017-02-19T12:49:29.745Z,550
2017-02-19T12:50:42.833Z,575
2017-02-19T12:51:55.935Z,610
2017-02-19T12:53:08.700Z,640
2017-02-19T12:54:21.778Z,670
2017-02-19T12:55:34.898Z,705
2017-02-19T12:56:47.669Z,725
2017-02-19T12:58:00.789Z,735
2017-02-19T12:59:13.912Z,720
2017-02-19T13:00:26.639Z,735
2017-02-19T13:01:39.771Z,725
2017-02-19T13:02:52.466Z,755
2017-02-19T13:04:05.144Z,740
2017-02-19T13:05:18.316Z,775
2017-02-19T13:06:31.435Z,705
2017-02-19T13:07:44.165Z,650
2017-02-19T13:08:56.885Z,620
2017-02-19T13:10:09.986Z,570
2017-02-19T13:11:23.096Z,530
2017-02-19T13:12:36.192Z,495
2017-02-19T13:13:49.294Z,475
2017-02-19T13:15:02.362Z,455
2017-02-19T13:16:15.003Z,445
2017-02-19T13:17:28.098Z,430
2017-02-19T13:18:40.851Z,410
2017-02-19T13:19:53.565Z,380
2017-02-19T13:21:06.292Z,365
2017-02-19T13:22:19.407Z,360
2017-02-19T13:23:32.503Z,375
2017-02-19T13:24:45.586Z,400
2017-02-19T13:25:58.703Z,435
2017-02-19T13:27:11.759Z,455
2017-02-19T13:28:24.861Z,465
2017-02-19T13:29:38.008Z,465
2017-02-19T13:30:50.359Z,465
2017-02-19T13:32:03.449Z,460
2017-02-19T13:33:16.530Z,460
2017-02-19T13:34:28.874Z,455
2017-02-19T13:35:41.588Z,445
2017-02-19T13:36:54.709Z,430
2017-02-19T13:38:07.433Z,420
2017-02-19T13:39:19.744Z,415
2017-02-19T13:40:32.423Z,415
2017-02-19T13:41:45.598Z,425
2017-02-19T13:42:58.918Z,435
2017-02-19T13:44:11.620Z,435
2017-02-19T13:45:24.329Z,435
2017-02-19T13:46:37.424Z,430
2017-02-19T13:47:50.564Z,430
2017-02-19T13:49:03.318Z,445
2017-02-19T13:50:16.063Z,455
2017-02-19T13:51:28.834Z,465
2017-02-19T13:52:41.937Z,470
2017-02-19T13:53:55.051Z,465
2017-02-19T13:55:08.114Z,455
2017-02-19T13:56:21.268Z,440
2017-02-19T13:57:34.337Z,430
2017-02-19T13:58:46.635Z,420
2017-02-19T13:59:59.731Z,410
2017-02-19T14:01:12.432Z,400
2017-02-19T14:02:25.158Z,395
2017-02-19T14:03:38.272Z,385
2017-02-19T14:04:51.345Z,375
2017-02-19T14:06:04.485Z,370
2017-02-19T14:07:17.563Z,360
2017-02-19T14:08:30.676Z,355
2017-02-19T14:09:43.771Z,340
2017-02-19T14:10:56.878Z,335
2017-02-19T14:12:10.040Z,325
2017-02-19T14:13:23.142Z,325
2017-02-19T14:14:36.265Z,320
2017-02-19T14:15:49.333Z,320
2017-02-19T14:17:02.423Z,320
2017-02-19T14:18:14.394Z,320
2017-02-19T14:19:27.489Z,320
2017-02-19T14:20:40.598Z,325
2017-02-19T14:21:53.313Z,320
2017-02-19T14:23:06.434Z,310
2017-02-19T14:24:19.123Z,280
2017-02-19T14:25:32.194Z,240
2017-02-19T14:26:45.245Z,220
2017-02-19T14:27:58.336Z,195
2017-02-19T14:29:11.432Z,160
2017-02-19T14:30:24.534Z,145
2017-02-19T14:31:37.242Z,135
2017-02-19T14:32:49.951Z,120
2017-02-19T14:34:03.039Z,115
2017-02-19T14:35:16.205Z,115
2017-02-19T14:36:29.281Z,115
2017-02-19T14:37:42.314Z,115
2017-02-19T14:38:55.455Z,110
2017-02-19T14:40:08.169Z,115
2017-02-19T14:41:20.864Z,120
2017-02-19T14:42:33.544Z,120
2017-02-19T14:43:46.654Z,120
2017-02-19T14:44:59.351Z,120
2017-02-19T14:46:12.067Z,120
2017-02-19T14:47:25.225Z,120
2017-02-19T14:48:38.302Z,120
2017-02-19T14:49:51.037Z,125
2017-02-19T14:51:04.114Z,125
2017-02-19T14:52:17.311Z,135
2017-02-19T14:53:30.367Z,135
2017-02-19T14:54:43.487Z,125
2017-02-19T14:55:56.170Z,120
2017-02-19T14:57:09.293Z,120
2017-02-19T14:58:22.406Z,130
2017-02-19T14:59:35.821Z,120
2017-02-19T15:00:48.891Z,115
2017-02-19T15:02:02.014Z,120
2017-02-19T15:03:15.099Z,110
2017-02-19T15:04:28.193Z,105
2017-02-19T15:05:41.325Z,110
2017-02-19T15:06:54.022Z,105
2017-02-19T15:08:07.104Z,95
2017-02-19T15:09:20.199Z,85
2017-02-19T15:10:33.273Z,70
2017-02-19T15:11:46.337Z,60
2017-02-19T15:12:59.443Z,60
2017-02-19T15:14:12.546Z,60
2017-02-19T15:15:25.637Z,55
2017-02-19T15:16:38.377Z,50
2017-02-19T15:17:51.509Z,50
2017-02-19T15:19:04.544Z,55
2017-02-19T15:20:17.683Z,65
2017-02-19T15:21:30.829Z,70
2017-02-19T15:22:43.958Z,70
2017-02-19T15:23:57.071Z,75
2017-02-19T15:25:09.817Z,75
2017-02-19T15:26:22.944Z,70
2017-02-19T15:27:35.609Z,65
2017-02-19T15:28:48.704Z,60
2017-02-19T15:30:01.407Z,55
2017-02-19T15:31:14.106Z,55
2017-02-19T15:32:27.210Z,55
2017-02-19T15:33:40.288Z,55
2017-02-19T15:34:53.351Z,60
2017-02-19T15:36:06.462Z,65
2017-02-19T15:37:19.777Z,65
2017-02-19T15:38:32.852Z,70
2017-02-19T15:39:45.971Z,70
2017-02-19T15:40:59.038Z,70
2017-02-19T15:42:12.165Z,65
2017-02-19T15:43:25.256Z,60
2017-02-19T15:44:38.327Z,55
2017-02-19T15:45:51.364Z,50
2017-02-19T15:47:04.449Z,45
2017-02-19T15:48:17.564Z,45
2017-02-19T15:49:30.685Z,45
2017-02-19T15:50:43.767Z,40
2017-02-19T15:51:56.894Z,35
2017-02-19T15:53:09.978Z,30
2017-02-19T15:54:23.053Z,30
2017-02-19T15:55:36.157Z,30
2017-02-19T15:56:49.214Z,30
2017-02-19T15:58:02.337Z,30
2017-02-19T15:59:15.075Z,30
2017-02-19T16:00:28.140Z,25
2017-02-19T16:01:40.805Z,25
2017-02-19T16:02:53.921Z,25
2017-02-19T16:04:06.617Z,20
2017-02-19T16:05:19.737Z,20
2017-02-19T16:06:32.819Z,20
2017-02-19T16:07:45.850Z,15
2017-02-19T16:08:58.980Z,15
2017-02-19T16:10:12.113Z,15
2017-02-19T16:11:25.237Z,15
2017-02-19T16:12:38.339Z,15
2017-02-19T16:13:51.419Z,15
2017-02-19T16:15:04.098Z,15
2017-02-19T16:16:17.250Z,10
2017-02-19T16:17:30.338Z,10
2017-02-19T16:18:43.469Z,10
2017-02-19T16:19:56.580Z,10
2017-02-19T16:21:09.309Z,5
2017-02-19T16:22:22.002Z,5
2017-02-19T16:23:34.725Z,5
2017-02-19T16:24:47.747Z,5
2017-02-19T16:26:00.860Z,5
2017-02-19T16:27:13.988Z,5
2017-02-19T16:28:27.095Z,0
2017-02-19T16:29:39.841Z,0
2017-02-19T16:30:52.550Z,0
2017-02-19T16:32:05.645Z,0
2017-02-19T16:33:18.742Z,0
2017-02-19T16:34:31.488Z,0
2017-02-19T16:35:44.589Z,0
2017-02-19T16:36:57.698Z,0
2017-02-19T16:38:10.494Z,0
2017-02-19T16:39:23.220Z,0
2017-02-19T16:40:36.310Z,0
2017-02-19T16:41:49.412Z,0
2017-02-19T16:43:02.490Z,0
2017-02-19T16:44:14.849Z,0
2017-02-19T16:45:27.951Z,0
2017-02-19T16:46:41.090Z,0
2017-02-19T16:47:54.196Z,0
2017-02-19T16:49:07.302Z,0
2017-02-19T16:50:20.354Z,0
2017-02-19T16:51:33.402Z,0
2017-02-19T16:52:46.512Z,0
2017-02-19T16:53:59.625Z,0
2017-02-19T16:55:12.353Z,0
2017-02-19T16:56:25.032Z,0
2017-02-19T16:57:38.122Z,0
2017-02-19T16:58:50.829Z,0
2017-02-19T17:00:03.927Z,0
2017-02-19T17:01:16.647Z,0
2017-02-19T17:02:29.711Z,0
2017-02-19T17:03:42.464Z,0
2017-02-19T17:04:55.603Z,0
2017-02-19T17:06:08.685Z,0
2017-02-19T17:07:21.804Z,0
2017-02-19T17:08:34.894Z,0
2017-02-19T17:09:47.967Z,0
2017-02-19T17:11:01.032Z,0
2017-02-19T17:12:13.779Z,0
2017-02-19T17:13:26.881Z,0
2017-02-19T17:14:39.970Z,0
2017-02-19T17:15:52.648Z,0
2017-02-19T17:17:05.713Z,0
2017-02-19T17:18:18.409Z,0